Northwest Aroostook, ME

1:47 PM EST on February 07, 2016 (GMT -0500)
Northern Maine Regional At Presque Isle | | Change Station
CLOSE
Current Station
Airport
Location: Presque Isle,
Elevation: 479 ft
Nearby Weather Stations

Elev 479 ft 46.69 °N, 68.04 °W | Updated 51 minutes ago

Clear
Clear
21 °F
Feels Like 6 °F
N
18
Wind Variable Wind from North
Gusts 23 mph

Today
High -- | Low -- °F
--% Chance of Precip.
Yesterday
High -- | Low -- °F
Precip. -- in
Pressure 30.25 in
Visibility 10.0 miles
Clouds Clear
Windchill 6 °F
Dew Point -4 °F
Humidity 33%
Rainfall 0.00 in
Snow Depth Not available.
6:54 AM 4:50 PM
Waning Crescent, 1% visible
METAR KPQI 071756Z AUTO 35016G20KT 10SM CLR M06/M20 A3011 RMK AO2 SLP241 60000 T10611200 11011 21067 51021 FZRANO
Pressure 30.25 in
Visibility 10.0 miles
Clouds Clear
Windchill 6 °F
Dew Point -4 °F
Humidity 33%
Rainfall 0.00 in
Snow Depth Not available.
6:54 AM 4:50 PM
Waning Crescent, 1% visible
METAR KPQI 071756Z AUTO 35016G20KT 10SM CLR M06/M20 A3011 RMK AO2 SLP241 60000 T10611200 11011 21067 51021 FZRANO

10-Day Weather Forecast

Almanac

Astronomy

Feb. 07, 2016 Rise Set
Actual Time
Civil Twilight
Nautical Twilight
Astronomical Twilight
Moon
Length of Visible Light
Length of Day
Tomorrow will be .
, % of the Moon is Illuminated

Today's Extremes

State Highs State Lows

Community

WunderPhotos

Upload Photos

1,891,280 photos uploaded!

WunderBlog® & News

Nearby

Air Quality

  Air Quality AQ Index Pollutant
Not available.

Snow Depth

Station Depth Elevation

Earthquake Activity

City Distance Mag. Time & Date
Minimum magnitude displayed is 2.5.

Coastal Water Temperatures

Place Temperature

Stations

Nearby Weather Stations

Station Location Temp. Windchill Dew Point Humidity Wind Precip. Elev Updated Type
                   

Watches & Warnings

There are currently no watches in effect.